createdAt,value
2023-03-30T00:01:02.233Z,10.90
2023-03-30T00:03:29.815Z,11.00
2023-03-30T00:06:02.642Z,10.90
2023-03-30T00:08:29.520Z,11.00
2023-03-30T00:11:04.394Z,11.00
2023-03-30T00:13:33.580Z,10.90
2023-03-30T00:16:01.262Z,11.00
2023-03-30T00:18:29.898Z,11.00
2023-03-30T00:20:58.552Z,10.90
2023-03-30T00:23:26.161Z,11.00
2023-03-30T00:25:53.202Z,11.00
2023-03-30T00:28:20.168Z,11.00
2023-03-30T00:30:48.581Z,11.00
2023-03-30T00:33:16.040Z,11.00
2023-03-30T00:35:43.018Z,11.00
2023-03-30T00:38:09.994Z,11.20
2023-03-30T00:40:38.352Z,11.00
2023-03-30T00:43:11.435Z,11.10
2023-03-30T00:45:38.657Z,11.00
2023-03-30T00:48:18.923Z,11.00
2023-03-30T00:51:03.457Z,10.90
2023-03-30T00:53:38.292Z,10.90
2023-03-30T00:56:07.699Z,10.90
2023-03-30T00:58:37.197Z,10.90
2023-03-30T01:01:07.881Z,10.90
2023-03-30T01:03:43.573Z,10.90
2023-03-30T01:06:12.242Z,10.90
2023-03-30T01:08:41.030Z,10.90
2023-03-30T01:11:08.260Z,10.90
2023-03-30T01:13:42.198Z,10.80
2023-03-30T01:16:35.141Z,10.80
2023-03-30T01:19:18.815Z,10.70
2023-03-30T01:22:14.944Z,10.60
2023-03-30T01:24:49.193Z,10.60
2023-03-30T01:27:39.387Z,10.60
2023-03-30T01:30:24.345Z,10.50
2023-03-30T01:32:51.885Z,10.50
2023-03-30T01:35:47.813Z,10.50
2023-03-30T01:38:39.846Z,10.50
2023-03-30T01:41:26.439Z,10.50
2023-03-30T01:44:03.224Z,10.50
2023-03-30T01:46:43.246Z,10.50
2023-03-30T01:49:34.046Z,10.50
2023-03-30T01:52:06.692Z,10.50
2023-03-30T01:54:39.752Z,10.50
2023-03-30T01:57:15.414Z,10.40
2023-03-30T02:00:14.659Z,10.40
2023-03-30T02:03:06.621Z,10.40
2023-03-30T02:05:35.725Z,10.30
2023-03-30T02:08:08.527Z,10.30
2023-03-30T02:10:37.125Z,10.30
2023-03-30T02:13:05.414Z,10.30
2023-03-30T02:15:46.016Z,10.30
2023-03-30T02:18:12.972Z,10.30
2023-03-30T02:20:40.259Z,10.30
2023-03-30T02:23:07.825Z,10.30
2023-03-30T02:25:38.564Z,10.20
2023-03-30T02:28:08.239Z,10.40
2023-03-30T02:30:39.040Z,10.30
2023-03-30T02:33:07.916Z,10.20
2023-03-30T02:35:51.614Z,10.20
2023-03-30T02:38:46.201Z,10.10
2023-03-30T02:41:26.704Z,10.10
2023-03-30T02:44:32.221Z,10.10
2023-03-30T02:47:20.188Z,10.00
2023-03-30T02:49:55.614Z,10.00
2023-03-30T02:52:45.354Z,10.00
2023-03-30T02:55:25.514Z,10.00
2023-03-30T02:58:33.518Z,10.10
2023-03-30T03:01:09.795Z,10.10
2023-03-30T03:03:44.535Z,10.10
2023-03-30T03:06:14.678Z,10.30
2023-03-30T03:08:43.992Z,10.20
2023-03-30T03:11:11.563Z,10.20
2023-03-30T03:13:39.388Z,10.30
2023-03-30T03:16:10.918Z,10.10
2023-03-30T03:18:41.849Z,10.20
2023-03-30T03:21:11.525Z,10.10
2023-03-30T03:23:38.473Z,10.20
2023-03-30T03:26:06.633Z,10.20
2023-03-30T03:28:33.989Z,10.30
2023-03-30T03:31:02.559Z,10.30
2023-03-30T03:33:31.947Z,10.30
2023-03-30T03:36:00.256Z,10.40
2023-03-30T03:38:28.269Z,10.40
2023-03-30T03:40:57.933Z,10.40
2023-03-30T03:43:25.599Z,10.50
2023-03-30T03:45:53.349Z,10.50
2023-03-30T03:48:24.830Z,10.60
2023-03-30T03:50:53.646Z,10.70
2023-03-30T03:53:21.580Z,10.60
2023-03-30T03:55:48.842Z,10.70
2023-03-30T03:58:16.866Z,10.70
2023-03-30T04:00:44.543Z,10.80
2023-03-30T04:03:12.373Z,10.80
2023-03-30T04:05:40.024Z,10.80
2023-03-30T04:08:10.844Z,11.00
2023-03-30T04:10:39.983Z,10.80
2023-03-30T04:13:07.372Z,10.90
2023-03-30T04:15:34.459Z,10.90
2023-03-30T04:18:01.797Z,10.90
2023-03-30T04:20:29.644Z,11.10
2023-03-30T04:22:57.144Z,11.10
2023-03-30T04:25:29.264Z,11.00
2023-03-30T04:27:57.317Z,11.10
2023-03-30T04:30:24.592Z,11.10
2023-03-30T04:33:02.827Z,11.10
2023-03-30T04:35:31.884Z,11.20
2023-03-30T04:38:00.017Z,11.20
2023-03-30T04:40:27.234Z,11.30
2023-03-30T04:42:54.777Z,11.30
2023-03-30T04:45:22.044Z,11.30
2023-03-30T04:47:49.052Z,11.40
2023-03-30T04:50:16.013Z,11.40
2023-03-30T04:52:42.938Z,11.40
2023-03-30T04:55:10.221Z,11.50
2023-03-30T04:57:37.451Z,11.50
2023-03-30T05:00:07.794Z,11.50
2023-03-30T05:02:34.888Z,11.60
2023-03-30T05:05:01.907Z,11.60
2023-03-30T05:07:29.061Z,11.60
2023-03-30T05:09:56.003Z,11.70
2023-03-30T05:12:22.929Z,11.70
2023-03-30T05:14:49.813Z,11.90
2023-03-30T05:17:16.836Z,11.80
2023-03-30T05:19:43.774Z,11.90
2023-03-30T05:22:10.619Z,12.00
2023-03-30T05:24:37.539Z,11.90
2023-03-30T05:27:05.133Z,12.00
2023-03-30T05:29:32.070Z,12.00
2023-03-30T05:31:59.157Z,12.00
2023-03-30T05:34:26.278Z,12.10
2023-03-30T05:36:54.002Z,12.20
2023-03-30T05:39:21.060Z,12.20
2023-03-30T05:41:48.001Z,12.30
2023-03-30T05:44:15.790Z,12.40
2023-03-30T05:46:42.734Z,12.40
2023-03-30T05:49:09.636Z,12.50
2023-03-30T05:51:36.754Z,12.60
2023-03-30T05:54:03.880Z,12.60
2023-03-30T05:56:30.888Z,12.70
2023-03-30T05:58:57.880Z,12.80
2023-03-30T06:01:26.120Z,12.90
2023-03-30T06:03:53.403Z,13.00
2023-03-30T06:06:20.661Z,13.10
2023-03-30T06:08:47.806Z,13.10
2023-03-30T06:11:14.874Z,13.20
2023-03-30T06:13:42.242Z,13.30
2023-03-30T06:16:09.632Z,13.40
2023-03-30T06:18:36.646Z,13.50
2023-03-30T06:21:07.399Z,13.50
2023-03-30T06:23:35.848Z,13.50
2023-03-30T06:26:05.150Z,13.60
2023-03-30T06:28:32.137Z,13.70
2023-03-30T06:31:01.530Z,13.80
2023-03-30T06:33:28.887Z,13.80
2023-03-30T06:35:55.979Z,13.90
2023-03-30T06:38:23.529Z,14.00
2023-03-30T06:40:51.410Z,14.10
2023-03-30T06:43:23.752Z,14.20
2023-03-30T06:45:56.071Z,14.20
2023-03-30T06:48:24.169Z,14.40
2023-03-30T06:50:52.285Z,14.50
2023-03-30T06:53:23.269Z,14.60
2023-03-30T06:55:58.116Z,14.70
2023-03-30T06:58:27.504Z,14.80
2023-03-30T07:00:57.011Z,14.90
2023-03-30T07:03:24.175Z,15.00
2023-03-30T07:05:54.210Z,15.10
2023-03-30T07:08:24.435Z,15.20
2023-03-30T07:10:51.552Z,15.30
2023-03-30T07:13:20.192Z,15.40
2023-03-30T07:15:47.506Z,15.60
2023-03-30T07:18:15.135Z,15.80
2023-03-30T07:20:42.568Z,15.90
2023-03-30T07:23:11.396Z,16.00
2023-03-30T07:25:39.194Z,16.20
2023-03-30T07:28:08.859Z,16.30
2023-03-30T07:30:36.465Z,16.50
2023-03-30T07:33:04.614Z,16.50
2023-03-30T07:35:32.268Z,16.70
2023-03-30T07:38:03.196Z,16.70
2023-03-30T07:40:31.304Z,16.80
2023-03-30T07:42:58.951Z,16.90
2023-03-30T07:45:26.208Z,16.90
2023-03-30T07:47:53.091Z,17.00
2023-03-30T07:50:20.154Z,17.00
2023-03-30T07:52:47.050Z,17.00
2023-03-30T07:55:14.306Z,17.00
2023-03-30T07:57:41.277Z,17.00
2023-03-30T08:00:14.136Z,17.00
2023-03-30T08:02:42.373Z,17.00
2023-03-30T08:05:09.742Z,17.10
2023-03-30T08:07:36.940Z,17.20
2023-03-30T08:10:04.310Z,17.20
2023-03-30T08:12:31.279Z,17.30
2023-03-30T08:14:58.527Z,17.40
2023-03-30T08:17:25.549Z,17.50
2023-03-30T08:19:52.523Z,17.60
2023-03-30T08:22:19.445Z,17.80
2023-03-30T08:24:46.479Z,17.90
2023-03-30T08:27:13.484Z,17.80
2023-03-30T08:29:41.209Z,17.90
2023-03-30T08:32:08.324Z,18.00
2023-03-30T08:34:36.887Z,18.10
2023-03-30T08:37:05.807Z,18.10
2023-03-30T08:39:33.230Z,18.20
2023-03-30T08:42:12.116Z,18.40
2023-03-30T08:44:45.351Z,18.70
2023-03-30T08:47:16.603Z,18.90
2023-03-30T08:49:52.539Z,19.20
2023-03-30T08:52:24.017Z,19.40
2023-03-30T08:54:52.160Z,19.70
2023-03-30T08:57:30.939Z,19.90
2023-03-30T09:00:06.572Z,19.90
2023-03-30T09:02:40.410Z,19.90
2023-03-30T09:05:10.869Z,20.00
2023-03-30T09:07:47.819Z,20.00
2023-03-30T09:10:15.888Z,20.10
2023-03-30T09:12:56.482Z,20.20
2023-03-30T09:15:39.572Z,20.20
2023-03-30T09:18:29.665Z,20.20
2023-03-30T09:20:59.862Z,20.20
2023-03-30T09:23:31.916Z,20.30
2023-03-30T09:26:37.315Z,20.40
2023-03-30T09:29:14.105Z,20.50
2023-03-30T09:31:48.897Z,20.50
2023-03-30T09:34:29.032Z,20.40
2023-03-30T09:37:12.602Z,20.30
2023-03-30T09:39:41.326Z,20.20
2023-03-30T09:42:38.061Z,20.20
2023-03-30T09:45:20.157Z,20.40
2023-03-30T09:47:47.131Z,20.60
2023-03-30T09:50:22.238Z,20.80
2023-03-30T09:53:00.030Z,20.90
2023-03-30T09:55:30.062Z,20.90
2023-03-30T09:58:21.035Z,20.90
2023-03-30T10:01:02.866Z,20.90
2023-03-30T10:03:29.967Z,20.90
2023-03-30T10:06:12.810Z,20.80
2023-03-30T10:08:48.927Z,20.60
2023-03-30T10:11:31.908Z,20.40
2023-03-30T10:13:59.797Z,20.40
2023-03-30T10:16:29.985Z,20.50
2023-03-30T10:19:23.185Z,20.40
2023-03-30T10:21:55.055Z,20.50
2023-03-30T10:24:24.765Z,20.70
2023-03-30T10:26:56.831Z,20.60
2023-03-30T10:29:27.249Z,20.40
2023-03-30T10:32:01.250Z,20.40
2023-03-30T10:34:35.125Z,20.20
2023-03-30T10:37:06.580Z,20.20
2023-03-30T10:39:35.171Z,20.20
2023-03-30T10:42:05.598Z,20.30
2023-03-30T10:44:36.986Z,20.30
2023-03-30T10:47:22.821Z,20.40
2023-03-30T10:50:16.589Z,20.60
2023-03-30T10:53:12.952Z,20.60
2023-03-30T10:56:01.945Z,20.60
2023-03-30T10:58:49.260Z,20.60
2023-03-30T11:01:29.428Z,20.50
2023-03-30T11:04:16.247Z,20.90
2023-03-30T11:06:53.591Z,21.20
2023-03-30T11:09:27.404Z,21.10
2023-03-30T11:12:17.786Z,20.70
2023-03-30T11:14:57.029Z,20.40
2023-03-30T11:17:35.105Z,20.00
2023-03-30T11:20:19.151Z,19.30
2023-03-30T11:22:51.613Z,18.50
2023-03-30T11:25:25.219Z,17.80
2023-03-30T11:28:06.877Z,17.10
2023-03-30T11:30:35.250Z,16.70
2023-03-30T11:33:08.249Z,16.40
2023-03-30T11:35:45.967Z,16.20
2023-03-30T11:38:19.432Z,15.80
2023-03-30T11:40:53.179Z,15.40
2023-03-30T11:43:23.553Z,15.10
2023-03-30T11:46:12.667Z,14.90
2023-03-30T11:48:49.803Z,14.70
2023-03-30T11:51:43.030Z,14.60
2023-03-30T11:54:31.301Z,14.40
2023-03-30T11:57:13.251Z,14.30
2023-03-30T12:00:11.287Z,14.20
2023-03-30T12:02:55.858Z,14.40
2023-03-30T12:05:35.145Z,14.70
2023-03-30T12:08:24.718Z,14.90
2023-03-30T12:11:02.314Z,14.80
2023-03-30T12:13:41.102Z,14.80
2023-03-30T12:16:32.114Z,14.80
2023-03-30T12:19:09.889Z,14.80
2023-03-30T12:21:50.404Z,14.80
2023-03-30T12:24:25.966Z,14.80
2023-03-30T12:27:04.372Z,14.90
2023-03-30T12:32:20.477Z,15.10
2023-03-30T12:34:47.695Z,15.20
2023-03-30T12:37:34.734Z,15.30
2023-03-30T12:40:26.253Z,15.30
2023-03-30T12:43:08.663Z,15.40
2023-03-30T12:45:42.092Z,15.40
2023-03-30T12:48:41.233Z,15.50
2023-03-30T12:51:16.781Z,15.50
2023-03-30T12:54:05.367Z,15.40
2023-03-30T12:56:42.350Z,15.30
2023-03-30T12:59:30.387Z,15.30
2023-03-30T13:02:09.170Z,15.30
2023-03-30T13:04:43.548Z,15.20
2023-03-30T13:07:15.895Z,15.40
2023-03-30T13:10:04.895Z,15.50
2023-03-30T13:12:33.208Z,15.60
2023-03-30T13:15:29.515Z,15.80
2023-03-30T13:17:56.935Z,16.00
2023-03-30T13:20:36.647Z,16.00
2023-03-30T13:23:09.896Z,16.20
2023-03-30T13:25:45.223Z,16.20
2023-03-30T13:28:37.177Z,16.40
2023-03-30T13:31:27.673Z,16.50
2023-03-30T13:34:20.059Z,16.80
2023-03-30T13:37:07.365Z,17.00
2023-03-30T13:39:42.614Z,17.00
2023-03-30T13:42:32.961Z,17.00
2023-03-30T13:45:35.646Z,17.10
2023-03-30T13:48:16.543Z,17.00
2023-03-30T13:50:52.171Z,16.90
2023-03-30T13:53:19.410Z,16.90
2023-03-30T13:55:49.031Z,16.90
2023-03-30T13:58:20.742Z,17.00
2023-03-30T14:01:07.580Z,17.00
2023-03-30T14:03:40.453Z,17.10
2023-03-30T14:06:16.922Z,17.20
2023-03-30T14:09:19.066Z,17.30
2023-03-30T14:11:53.115Z,17.20
2023-03-30T14:14:30.059Z,17.10
2023-03-30T14:17:01.528Z,17.00
2023-03-30T14:19:36.486Z,16.90
2023-03-30T14:22:17.610Z,16.70
2023-03-30T14:25:06.627Z,16.70
2023-03-30T14:27:38.522Z,16.60
2023-03-30T14:30:23.650Z,16.60
2023-03-30T14:33:13.140Z,16.60
2023-03-30T14:35:43.787Z,16.60
2023-03-30T14:38:22.073Z,16.50
2023-03-30T14:40:51.081Z,16.50
2023-03-30T14:43:40.616Z,16.50
2023-03-30T14:46:12.218Z,16.70
2023-03-30T14:48:44.838Z,16.70
2023-03-30T14:51:37.925Z,16.70
2023-03-30T14:54:06.545Z,16.50
2023-03-30T14:56:33.838Z,16.40
2023-03-30T14:59:01.642Z,16.30
2023-03-30T15:01:33.265Z,16.30
2023-03-30T15:04:10.080Z,16.10
2023-03-30T15:06:37.771Z,16.10
2023-03-30T15:09:13.151Z,16.10
2023-03-30T15:11:41.014Z,16.00
2023-03-30T15:14:10.762Z,16.10
2023-03-30T15:16:38.650Z,16.10
2023-03-30T15:19:21.029Z,16.20
2023-03-30T15:21:53.611Z,16.20
2023-03-30T15:24:25.978Z,16.20
2023-03-30T15:26:56.867Z,16.10
2023-03-30T15:29:25.265Z,16.10
2023-03-30T15:32:14.013Z,16.00
2023-03-30T15:34:59.734Z,15.90
2023-03-30T15:37:26.605Z,15.80
2023-03-30T15:39:53.682Z,15.70
2023-03-30T15:42:33.563Z,15.60
2023-03-30T15:45:13.045Z,15.60
2023-03-30T15:47:41.298Z,15.50
2023-03-30T15:50:14.183Z,15.50
2023-03-30T15:52:44.918Z,15.40
2023-03-30T15:55:21.080Z,15.30
2023-03-30T15:57:51.195Z,15.20
2023-03-30T16:00:23.833Z,15.20
2023-03-30T16:03:01.635Z,15.20
2023-03-30T16:05:36.107Z,15.30
2023-03-30T16:08:05.027Z,15.30
2023-03-30T16:10:33.389Z,15.30
2023-03-30T16:13:01.520Z,15.30
2023-03-30T16:15:32.898Z,15.00
2023-03-30T16:17:59.968Z,14.80
2023-03-30T16:20:30.931Z,14.70
2023-03-30T16:22:58.969Z,14.70
2023-03-30T16:25:41.725Z,14.80
2023-03-30T16:28:17.174Z,14.70
2023-03-30T16:30:47.157Z,14.70
2023-03-30T16:33:14.168Z,14.60
2023-03-30T16:35:41.192Z,14.70
2023-03-30T16:38:13.583Z,14.70
2023-03-30T16:40:44.058Z,14.70
2023-03-30T16:43:11.926Z,14.70
2023-03-30T16:45:39.038Z,14.70
2023-03-30T16:48:06.519Z,14.70
2023-03-30T16:50:42.701Z,14.60
2023-03-30T16:53:11.139Z,14.50
2023-03-30T16:55:39.594Z,14.40
2023-03-30T16:58:08.661Z,14.30
2023-03-30T17:00:42.943Z,14.30
2023-03-30T17:03:10.496Z,14.20
2023-03-30T17:05:37.931Z,14.20
2023-03-30T17:08:07.468Z,14.00
2023-03-30T17:10:40.043Z,13.80
2023-03-30T17:13:08.179Z,13.60
2023-03-30T17:15:38.588Z,13.50
2023-03-30T17:18:09.092Z,13.40
2023-03-30T17:20:41.694Z,13.30
2023-03-30T17:23:10.561Z,13.30
2023-03-30T17:25:39.780Z,13.30
2023-03-30T17:28:09.083Z,13.20
2023-03-30T17:30:40.594Z,13.20
2023-03-30T17:33:12.870Z,13.20
2023-03-30T17:35:40.041Z,13.20
2023-03-30T17:38:09.084Z,13.10
2023-03-30T17:40:38.811Z,13.00
2023-03-30T17:43:07.491Z,13.00
2023-03-30T17:45:36.099Z,13.00
2023-03-30T17:48:05.236Z,13.10
2023-03-30T17:50:33.441Z,13.10
2023-03-30T17:53:01.154Z,13.10
2023-03-30T17:55:31.128Z,13.10
2023-03-30T17:57:59.134Z,13.10
2023-03-30T18:00:29.188Z,13.10
2023-03-30T18:02:56.821Z,13.20
2023-03-30T18:05:27.027Z,13.10
2023-03-30T18:07:54.168Z,13.10
2023-03-30T18:10:37.149Z,13.00
2023-03-30T18:13:04.796Z,12.90
2023-03-30T18:15:32.988Z,12.90
2023-03-30T18:18:01.083Z,12.80
2023-03-30T18:20:36.066Z,12.70
2023-03-30T18:23:03.098Z,12.70
2023-03-30T18:25:32.571Z,12.70
2023-03-30T18:28:00.962Z,12.60
2023-03-30T18:30:37.738Z,12.70
2023-03-30T18:33:06.050Z,12.70
2023-03-30T18:35:35.765Z,12.70
2023-03-30T18:38:03.984Z,12.70
2023-03-30T18:40:39.146Z,12.70
2023-03-30T18:43:06.751Z,12.70
2023-03-30T18:45:42.390Z,12.70
2023-03-30T18:48:13.196Z,12.70
2023-03-30T18:50:45.199Z,12.70
2023-03-30T18:53:18.676Z,12.80
2023-03-30T18:55:47.803Z,12.90
2023-03-30T18:58:18.449Z,12.90
2023-03-30T19:00:45.331Z,13.00
2023-03-30T19:03:14.208Z,13.00
2023-03-30T19:05:41.868Z,13.10
2023-03-30T19:08:17.889Z,13.10
2023-03-30T19:10:46.577Z,13.10
2023-03-30T19:13:15.117Z,13.10
2023-03-30T19:15:42.300Z,13.10
2023-03-30T19:18:09.249Z,13.00
2023-03-30T19:20:39.879Z,13.00
2023-03-30T19:23:07.996Z,12.90
2023-03-30T19:25:34.932Z,12.90
2023-03-30T19:28:04.560Z,12.90
2023-03-30T19:30:36.051Z,12.80
2023-03-30T19:33:07.772Z,12.80
2023-03-30T19:35:35.668Z,12.80
2023-03-30T19:38:02.761Z,12.90
2023-03-30T19:40:31.404Z,12.80
2023-03-30T19:42:58.331Z,12.80
2023-03-30T19:45:25.287Z,12.90
2023-03-30T19:47:52.375Z,12.90
2023-03-30T19:50:23.198Z,12.90
2023-03-30T19:52:51.008Z,13.00
2023-03-30T19:55:21.635Z,13.00
2023-03-30T19:57:48.560Z,13.00
2023-03-30T20:00:17.614Z,13.00
2023-03-30T20:02:53.812Z,13.00
2023-03-30T20:05:22.795Z,13.00
2023-03-30T20:07:50.466Z,13.00
2023-03-30T20:10:24.535Z,13.00
2023-03-30T20:12:52.689Z,12.90
2023-03-30T20:15:23.438Z,12.90
2023-03-30T20:17:56.220Z,12.80
2023-03-30T20:20:25.416Z,12.70
2023-03-30T20:22:56.612Z,12.70
2023-03-30T20:25:24.035Z,12.70
2023-03-30T20:27:51.144Z,12.70
2023-03-30T20:30:18.798Z,12.70
2023-03-30T20:32:55.939Z,12.80
2023-03-30T20:35:27.337Z,13.00
2023-03-30T20:37:55.312Z,12.80
2023-03-30T20:40:22.247Z,12.90
2023-03-30T20:42:49.187Z,12.90
2023-03-30T20:45:17.440Z,12.90
2023-03-30T20:47:50.016Z,12.90
2023-03-30T20:50:17.187Z,12.90
2023-03-30T20:52:44.069Z,12.90
2023-03-30T20:55:11.355Z,12.90
2023-03-30T20:57:38.308Z,12.90
2023-03-30T21:00:22.430Z,12.90
2023-03-30T21:02:49.291Z,13.00
2023-03-30T21:05:16.548Z,12.90
2023-03-30T21:07:47.000Z,12.90
2023-03-30T21:10:15.872Z,12.90
2023-03-30T21:12:42.694Z,12.90
2023-03-30T21:15:10.047Z,12.80
2023-03-30T21:17:36.906Z,12.90
2023-03-30T21:20:09.336Z,12.90
2023-03-30T21:22:36.325Z,12.90
2023-03-30T21:25:03.368Z,12.90
2023-03-30T21:27:30.205Z,12.80
2023-03-30T21:29:57.162Z,12.80
2023-03-30T21:32:24.032Z,12.80
2023-03-30T21:34:50.943Z,12.70
2023-03-30T21:37:17.813Z,12.70
2023-03-30T21:39:45.096Z,12.70
2023-03-30T21:42:12.013Z,12.80
2023-03-30T21:44:38.906Z,12.70
2023-03-30T21:47:05.753Z,12.60
2023-03-30T21:49:33.048Z,12.60
2023-03-30T21:51:59.880Z,12.60
2023-03-30T21:54:26.966Z,12.60
2023-03-30T21:56:53.876Z,12.70
2023-03-30T21:59:20.776Z,12.60
2023-03-30T22:01:47.707Z,12.60
2023-03-30T22:04:14.862Z,12.50
2023-03-30T22:06:41.809Z,12.40
2023-03-30T22:09:08.688Z,12.40
2023-03-30T22:11:35.703Z,12.40
2023-03-30T22:14:02.677Z,12.40
2023-03-30T22:16:35.068Z,12.30
2023-03-30T22:19:03.468Z,12.30
2023-03-30T22:21:34.455Z,12.30
2023-03-30T22:24:07.071Z,12.30
2023-03-30T22:26:34.857Z,12.30
2023-03-30T22:29:01.739Z,12.40
2023-03-30T22:31:28.840Z,12.50
2023-03-30T22:33:56.517Z,12.50
2023-03-30T22:36:26.379Z,12.50
2023-03-30T22:38:53.352Z,12.50
2023-03-30T22:41:24.060Z,12.40
2023-03-30T22:43:56.200Z,12.40
2023-03-30T22:46:25.057Z,12.40
2023-03-30T22:48:52.507Z,12.30
2023-03-30T22:51:26.213Z,12.30
2023-03-30T22:53:57.905Z,12.30
2023-03-30T22:56:25.778Z,12.40
2023-03-30T22:58:52.769Z,12.40
2023-03-30T23:01:21.457Z,12.40
2023-03-30T23:03:48.549Z,12.40
2023-03-30T23:06:18.760Z,12.40
2023-03-30T23:08:47.180Z,12.50
2023-03-30T23:11:14.229Z,12.50
2023-03-30T23:13:42.179Z,12.60
2023-03-30T23:16:10.728Z,12.60
2023-03-30T23:18:38.318Z,12.60
2023-03-30T23:21:11.074Z,12.60
2023-03-30T23:23:38.681Z,12.80
2023-03-30T23:26:10.967Z,12.70
2023-03-30T23:28:40.312Z,12.70
2023-03-30T23:31:15.465Z,12.70
2023-03-30T23:33:43.375Z,12.70
2023-03-30T23:36:13.650Z,12.80
2023-03-30T23:38:41.526Z,12.70
2023-03-30T23:41:09.251Z,12.70
2023-03-30T23:43:36.357Z,12.70
2023-03-30T23:46:03.931Z,12.60
2023-03-30T23:48:31.390Z,12.60
2023-03-30T23:50:58.662Z,12.50
2023-03-30T23:53:26.829Z,12.40
2023-03-30T23:55:54.718Z,12.40
2023-03-30T23:58:22.421Z,12.30
